Portada
METAR-TAF:

METAR-TAF

Aeroports :

Retalhuleu, Guatemala

latitud: 14-32N, longitud: 091-40W, altitud: 239 m

Observació

L'informe es va fer fa 11 hores i 9 minuts, a les 00:00 UTC
Vent 4 kt del Nord
Temperatura 24°C
Humitat 94%
Pressió 1013 hPa
Visibilitat: 8000 m
Cel ennuvolat a una alçada de 1600 ft
Escasses núvols a una alçada de 2500 ft, Cumulonimbus.
Cel cobert a una alçada de 9000 ft
tempesta, pluja

METAR: MGRT 160000Z 36004KT 8000 -TSRA BKN016 FEW025CB OVC090 24/23 Q1013 A2991 CB/TS/LTNG N/NW/NNW VOL. STA. MARIA Y SANTIAGUITO EN ACTIVIDAD

Hora: 05:09 (11:09 UTC)


TAF: manca

Observacions i pronòstics meteorològics de més de 4000 aeroports (METAR i TAF).

Les estacions disponibles són els punts grocs i vermells al mapa.

Posi el ratolí al punt desitjat per veure el nom de l'estació.

Feu clic per veure les observacions i els pronòstics meteorològics.

Per canviar el mapa: feu clic els botons verds amb una creu de color negre per apropar; al botó verd amb un guió per allunyar la imatge; o en les fletxes verdes per a mapes adjacents.


METAR-TAF: